Time;durP1;ratioP1;P1;durP2;ratioP2;P2;SDS_P1;SDS_P2;PMS_P1;PMS_P2;Temp;Humidity;BMP_temperature;BMP_pressure;BME280_temperature;BME280_humidity;BME280_pressure;Samples;Min_cycle;Max_cycle;Signal;HPM_P1;HPM_P2
2022/12/20 00:02:38;;;;;;;5.10;1.80;;;16.10;61.60;;;;;;10431775;28;20112;-56
2022/12/20 00:07:39;;;;;;;3.58;2.10;;;16.10;61.50;;;;;;10436265;28;20094;-56
2022/12/20 00:12:40;;;;;;;3.38;1.63;;;16.00;61.60;;;;;;10436844;28;20448;-55
2022/12/20 00:17:41;;;;;;;3.45;1.80;;;16.10;61.60;;;;;;10408216;28;20052;-55
2022/12/20 00:22:41;;;;;;;4.07;1.60;;;16.10;61.60;;;;;;10407638;28;20032;-54
2022/12/20 00:27:42;;;;;;;2.28;1.30;;;16.10;61.60;;;;;;10406299;28;20115;-53
2022/12/20 00:32:44;;;;;;;3.35;1.52;;;16.10;61.50;;;;;;10425775;28;20551;-54
2022/12/20 00:37:44;;;;;;;2.30;1.45;;;16.00;61.60;;;;;;10447051;28;20112;-55
2022/12/20 00:42:45;;;;;;;2.35;1.50;;;16.00;61.50;;;;;;10428699;28;20037;-58
2022/12/20 00:47:46;;;;;;;2.10;1.50;;;16.10;61.40;;;;;;10409495;28;20095;-54
2022/12/20 00:52:46;;;;;;;3.85;1.42;;;16.10;61.40;;;;;;10447627;28;20119;-54
2022/12/20 00:57:47;;;;;;;3.63;1.60;;;16.10;61.40;;;;;;10434473;28;20117;-53
2022/12/20 01:02:48;;;;;;;3.10;1.20;;;16.00;61.40;;;;;;10423713;28;20080;-54
2022/12/20 01:07:48;;;;;;;2.35;1.08;;;16.00;61.30;;;;;;10444875;28;20622;-57
2022/12/20 01:12:49;;;;;;;2.15;1.10;;;16.10;61.30;;;;;;10447132;28;20491;-56
2022/12/20 01:17:50;;;;;;;3.72;1.25;;;16.00;61.30;;;;;;10445750;28;20079;-55
2022/12/20 01:22:51;;;;;;;3.03;1.23;;;16.10;61.20;;;;;;10399966;28;20026;-55
2022/12/20 01:27:51;;;;;;;2.70;1.40;;;16.10;61.30;;;;;;10405799;28;20104;-55
2022/12/20 01:32:52;;;;;;;4.03;1.20;;;16.10;61.30;;;;;;10437071;28;20028;-54
2022/12/20 01:37:53;;;;;;;4.00;1.60;;;16.10;61.20;;;;;;10446749;28;20104;-55
2022/12/20 01:42:53;;;;;;;1.73;0.95;;;16.00;61.20;;;;;;10446642;28;20095;-54
2022/12/20 01:47:57;;;;;;;2.90;1.55;;;16.10;61.20;;;;;;10445069;28;20559;-54
2022/12/20 01:52:59;;;;;;;2.03;1.20;;;16.10;61.40;;;;;;10408711;28;20018;-54
2022/12/20 01:58:04;;;;;;;1.85;1.40;;;16.10;61.30;;;;;;10418362;28;20032;-54
2022/12/20 02:03:08;;;;;;;3.70;1.42;;;16.10;61.10;;;;;;10442699;28;20029;-54
2022/12/20 02:08:12;;;;;;;2.00;0.93;;;16.10;61.20;;;;;;10389209;28;20423;-54
2022/12/20 02:13:58;;;;;;;2.17;1.33;;;16.10;61.30;;;;;;10411652;28;20033;-54
2022/12/20 02:19:27;;;;;;;2.47;1.20;;;16.00;61.30;;;;;;10363051;28;20030;-53
2022/12/20 02:25:41;;;;;;;2.40;1.02;;;16.10;61.40;;;;;;10412363;28;20037;-56
2022/12/20 02:30:46;;;;;;;3.85;1.23;;;16.00;61.40;;;;;;10339092;28;20050;-54
2022/12/20 02:35:46;;;;;;;2.53;1.33;;;16.10;61.20;;;;;;10431568;28;20041;-55
2022/12/20 02:40:48;;;;;;;1.63;1.00;;;16.10;61.30;;;;;;10425253;28;20025;-55
2022/12/20 02:45:49;;;;;;;2.25;1.27;;;16.10;61.40;;;;;;10411531;28;20046;-54
2022/12/20 02:50:53;;;;;;;1.60;0.77;;;16.10;61.30;;;;;;10442575;28;20026;-55
2022/12/20 02:56:25;;;;;;;1.38;0.80;;;16.00;61.20;;;;;;10417026;28;20025;-54
2022/12/20 03:01:40;;;;;;;2.67;1.25;;;16.10;61.30;;;;;;10450532;28;20031;-54
2022/12/20 03:07:02;;;;;;;1.88;1.00;;;16.10;61.90;;;;;;10425615;28;20099;-55
2022/12/20 03:12:03;;;;;;;3.00;1.10;;;16.00;61.40;;;;;;10431758;28;20022;-54
2022/12/20 03:17:05;;;;;;;1.63;1.08;;;16.10;61.40;;;;;;10422807;28;20064;-54
2022/12/20 03:22:05;;;;;;;1.67;0.82;;;16.10;61.30;;;;;;10410006;28;20038;-55
2022/12/20 03:27:06;;;;;;;1.75;1.00;;;16.10;61.40;;;;;;10447859;28;20017;-53
2022/12/20 03:32:07;;;;;;;2.13;1.00;;;16.10;61.20;;;;;;10425935;28;20067;-55
2022/12/20 03:37:08;;;;;;;3.05;1.42;;;16.10;61.20;;;;;;10408430;28;20022;-53
2022/12/20 03:42:08;;;;;;;1.50;0.90;;;16.00;61.40;;;;;;10407932;28;20116;-54
2022/12/20 03:47:09;;;;;;;1.48;0.70;;;16.00;61.60;;;;;;10438410;28;20052;-54
2022/12/20 03:52:12;;;;;;;1.63;0.80;;;16.00;61.60;;;;;;10450144;28;20121;-56
2022/12/20 03:57:13;;;;;;;1.92;0.88;;;16.00;61.50;;;;;;10399971;28;20014;-55
2022/12/20 04:02:14;;;;;;;1.55;0.82;;;16.00;61.50;;;;;;10428369;28;20029;-55
2022/12/20 04:07:15;;;;;;;2.03;1.35;;;16.00;61.40;;;;;;10434883;28;20024;-55
2022/12/20 04:12:17;;;;;;;1.75;0.88;;;16.00;61.40;;;;;;10431619;28;20029;-54
2022/12/20 04:17:17;;;;;;;1.02;0.73;;;16.00;61.50;;;;;;10437338;28;20029;-55
2022/12/20 04:22:18;;;;;;;1.38;0.80;;;16.00;61.40;;;;;;10419713;28;20041;-52
2022/12/20 04:27:19;;;;;;;2.83;1.17;;;16.00;61.30;;;;;;10448910;28;20092;-53
2022/12/20 04:32:19;;;;;;;2.25;1.15;;;16.00;61.40;;;;;;10427872;28;20429;-52
2022/12/20 04:37:20;;;;;;;1.83;0.93;;;16.00;61.40;;;;;;10427523;28;20056;-55
2022/12/20 04:42:22;;;;;;;1.42;1.00;;;16.00;61.30;;;;;;10416602;28;20036;-54
2022/12/20 04:47:22;;;;;;;1.27;0.60;;;16.00;61.30;;;;;;10406694;28;20072;-54
2022/12/20 04:57:42;;;;;;;2.08;1.48;;;16.10;61.20;;;;;;10434310;28;20476;-54
2022/12/20 05:02:43;;;;;;;2.17;0.95;;;16.00;61.30;;;;;;10426171;28;20037;-56
2022/12/20 05:07:43;;;;;;;1.52;0.90;;;16.00;62.00;;;;;;10432857;28;20409;-56
2022/12/20 05:12:44;;;;;;;1.40;0.82;;;16.00;61.50;;;;;;10427486;28;20121;-55
2022/12/20 05:17:44;;;;;;;1.30;0.80;;;16.00;61.50;;;;;;10430757;28;20431;-55
2022/12/20 05:28:04;;;;;;;1.83;0.80;;;16.00;61.50;;;;;;10425653;28;20041;-57
2022/12/20 05:33:05;;;;;;;1.85;1.13;;;16.10;61.50;;;;;;10428310;28;20021;-56
2022/12/20 05:38:06;;;;;;;3.13;0.80;;;16.00;61.40;;;;;;10423715;28;20122;-55
2022/12/20 05:43:07;;;;;;;2.50;0.68;;;16.00;61.50;;;;;;10439772;28;20196;-56
2022/12/20 05:48:07;;;;;;;1.35;0.90;;;16.00;61.40;;;;;;10446828;28;20041;-56
2022/12/20 05:53:12;;;;;;;1.50;1.00;;;16.10;61.50;;;;;;10451456;28;20020;-55
2022/12/20 05:58:13;;;;;;;1.90;0.93;;;16.00;61.70;;;;;;10441407;28;20051;-55
2022/12/20 06:03:14;;;;;;;3.88;1.38;;;16.00;61.80;;;;;;10443530;28;20033;-54
2022/12/20 06:08:15;;;;;;;5.03;1.30;;;15.90;62.00;;;;;;10441860;28;20105;-54
2022/12/20 06:13:16;;;;;;;2.83;1.27;;;16.00;62.70;;;;;;10429962;28;20037;-55
2022/12/20 06:18:17;;;;;;;4.65;1.60;;;16.30;62.20;;;;;;10447000;28;20104;-54
2022/12/20 06:23:19;;;;;;;5.15;1.67;;;16.40;62.40;;;;;;10431914;28;20099;-56
2022/12/20 06:28:20;;;;;;;1.75;1.25;;;16.30;63.80;;;;;;10433916;28;20644;-55
2022/12/20 06:33:21;;;;;;;4.60;1.90;;;16.30;64.50;;;;;;10441554;28;20028;-56
2022/12/20 06:38:22;;;;;;;7.90;1.90;;;16.30;65.00;;;;;;10415499;28;20437;-58
2022/12/20 06:43:23;;;;;;;3.95;1.67;;;16.30;65.20;;;;;;10410365;28;20136;-56
2022/12/20 06:48:23;;;;;;;12.82;2.15;;;16.20;64.90;;;;;;10411263;28;20045;-56
2022/12/20 06:53:24;;;;;;;6.45;1.50;;;16.20;65.30;;;;;;10423638;28;20100;-55
2022/12/20 06:58:24;;;;;;;3.70;1.30;;;16.20;65.50;;;;;;10434909;28;20096;-58
2022/12/20 07:03:25;;;;;;;3.88;1.70;;;16.20;65.60;;;;;;10404473;28;20128;-55
2022/12/20 07:08:26;;;;;;;4.82;1.60;;;16.20;65.70;;;;;;10409248;28;20045;-57
2022/12/20 07:13:27;;;;;;;3.60;1.70;;;16.10;65.40;;;;;;10376170;28;20037;-57
2022/12/20 07:18:28;;;;;;;4.97;1.83;;;16.00;65.60;;;;;;10437317;28;20972;-55
2022/12/20 07:23:29;;;;;;;6.93;1.63;;;16.00;65.60;;;;;;10413368;28;20036;-55
2022/12/20 07:28:30;;;;;;;5.18;1.33;;;15.90;65.80;;;;;;10414180;28;20021;-56
2022/12/20 07:33:31;;;;;;;8.70;2.40;;;15.90;65.50;;;;;;10424222;28;20603;-56
2022/12/20 07:38:34;;;;;;;9.52;1.98;;;15.90;65.60;;;;;;10404111;28;20495;-53
2022/12/20 07:43:35;;;;;;;11.13;1.73;;;15.90;65.80;;;;;;10432658;28;20029;-57
2022/12/20 07:48:36;;;;;;;10.18;2.10;;;15.90;66.00;;;;;;10430952;28;20077;-55
2022/12/20 07:53:44;;;;;;;12.38;1.83;;;15.80;65.80;;;;;;10428355;28;20456;-55
2022/12/20 07:58:46;;;;;;;10.85;1.80;;;15.80;66.10;;;;;;10431504;28;20116;-57
2022/12/20 08:03:55;;;;;;;7.55;1.98;;;15.80;66.00;;;;;;10431768;28;20120;-56
2022/12/20 08:08:59;;;;;;;;;;;15.80;66.10;;;;;;10434125;28;20049;-56
2022/12/20 08:14:00;;;;;;;4.57;1.42;;;15.80;66.10;;;;;;10436384;28;19905;-56
2022/12/20 08:19:00;;;;;;;6.90;2.05;;;15.80;66.20;;;;;;10447637;28;20112;-57
2022/12/20 08:24:01;;;;;;;7.93;1.55;;;15.70;66.30;;;;;;10439504;28;20564;-56
2022/12/20 08:29:02;;;;;;;3.80;1.33;;;15.70;66.60;;;;;;10424270;28;20486;-56
2022/12/20 08:34:03;;;;;;;11.05;1.73;;;15.70;66.20;;;;;;10419529;28;20115;-55
2022/12/20 08:39:05;;;;;;;12.60;2.28;;;15.70;66.10;;;;;;10436092;28;20028;-56
2022/12/20 08:44:06;;;;;;;8.95;2.50;;;15.60;66.10;;;;;;10439501;28;20033;-57
2022/12/20 08:49:06;;;;;;;9.45;1.83;;;15.70;66.30;;;;;;10417175;28;20052;-58
2022/12/20 08:54:07;;;;;;;4.25;1.70;;;15.70;66.00;;;;;;10425794;28;20600;-58
2022/12/20 08:59:08;;;;;;;6.70;1.75;;;15.70;66.40;;;;;;10438724;28;20155;-59
2022/12/20 09:04:10;;;;;;;6.03;1.77;;;15.70;66.80;;;;;;10446008;28;20345;-57
2022/12/20 09:09:12;;;;;;;7.38;1.70;;;15.70;66.00;;;;;;10408923;28;20029;-57
2022/12/20 09:14:12;;;;;;;6.32;1.40;;;15.70;66.30;;;;;;10415543;28;20110;-57
2022/12/20 09:19:15;;;;;;;4.95;1.42;;;15.70;66.40;;;;;;10432327;28;20028;-57
2022/12/20 09:24:16;;;;;;;5.95;1.38;;;15.80;66.30;;;;;;10445471;28;20496;-54
2022/12/20 09:29:17;;;;;;;7.95;1.98;;;15.90;65.60;;;;;;10439557;28;20112;-55
2022/12/20 09:34:17;;;;;;;13.32;2.17;;;15.90;66.50;;;;;;10422347;28;20032;-57
2022/12/20 09:39:18;;;;;;;4.20;1.42;;;15.80;66.40;;;;;;10427006;28;20096;-57
2022/12/20 09:44:34;;;;;;;6.35;1.17;;;15.80;66.60;;;;;;10430762;28;20095;-55
2022/12/20 09:49:40;;;;;;;10.30;1.90;;;15.80;66.40;;;;;;10443152;28;20017;-57
2022/12/20 09:55:15;;;;;;;11.18;1.67;;;15.80;66.10;;;;;;10424023;28;20018;-55
2022/12/20 10:00:18;;;;;;;7.40;1.48;;;16.00;65.60;;;;;;10431398;28;20167;-55
2022/12/20 10:05:44;;;;;;;5.85;1.58;;;15.80;65.70;;;;;;10421224;28;20117;-56
2022/12/20 10:11:11;;;;;;;12.02;2.17;;;15.70;66.00;;;;;;10436162;28;20063;-54
2022/12/20 10:16:41;;;;;;;8.32;1.77;;;15.70;66.30;;;;;;10445934;28;20074;-56
2022/12/20 10:22:02;;;;;;;8.80;1.70;;;15.70;65.70;;;;;;10415484;28;20195;-54
2022/12/20 10:27:18;;;;;;;8.95;1.67;;;15.80;65.30;;;;;;10445476;28;20042;-58
2022/12/20 10:32:22;;;;;;;8.85;1.30;;;15.90;64.70;;;;;;10435443;28;20029;-57
2022/12/20 10:37:23;;;;;;;8.63;1.20;;;16.00;64.40;;;;;;10408068;28;20025;-56
2022/12/20 10:42:37;;;;;;;4.63;1.17;;;15.90;64.30;;;;;;10444689;28;20648;-56
2022/12/20 10:47:42;;;;;;;6.22;1.20;;;15.90;64.30;;;;;;10451131;28;20482;-56
2022/12/20 10:52:45;;;;;;;5.57;1.48;;;15.90;64.40;;;;;;10433102;28;20511;-55
2022/12/20 10:57:45;;;;;;;2.75;1.00;;;15.90;64.30;;;;;;10450664;28;20039;-55
2022/12/20 11:03:10;;;;;;;8.60;1.23;;;15.90;64.30;;;;;;10428934;28;20041;-56
2022/12/20 11:08:16;;;;;;;4.72;1.13;;;15.80;64.30;;;;;;10432875;28;20108;-57
2022/12/20 11:13:25;;;;;;;4.10;1.00;;;15.80;64.50;;;;;;10439481;28;20037;-55
2022/12/20 11:18:44;;;;;;;7.53;1.30;;;15.80;64.30;;;;;;10424683;28;20111;-56
2022/12/20 11:23:56;;;;;;;6.60;2.30;;;15.90;65.10;;;;;;10434356;28;20036;-57
2022/12/20 11:29:15;;;;;;;4.75;1.30;;;16.00;65.80;;;;;;10447495;28;20028;-58
2022/12/20 11:34:42;;;;;;;5.10;1.17;;;16.10;66.30;;;;;;10415734;28;20055;-56
2022/12/20 11:40:14;;;;;;;7.95;1.27;;;16.00;66.60;;;;;;10449479;28;20017;-58
2022/12/20 11:45:22;;;;;;;6.90;1.48;;;16.00;67.00;;;;;;10432750;28;20052;-57
2022/12/20 11:50:50;;;;;;;6.70;1.75;;;16.00;67.00;;;;;;10430447;28;20119;-57
2022/12/20 11:55:57;;;;;;;3.08;1.52;;;16.00;66.60;;;;;;10425817;28;20024;-57
2022/12/20 12:01:12;;;;;;;4.55;1.35;;;15.90;66.10;;;;;;10433382;28;20044;-57
2022/12/20 12:06:38;;;;;;;2.80;0.95;;;15.90;66.30;;;;;;10436825;28;20421;-57
2022/12/20 12:12:23;;;;;;;3.88;1.00;;;16.00;66.50;;;;;;10418118;28;20044;-56
2022/12/20 12:17:37;;;;;;;6.03;1.73;;;16.00;66.80;;;;;;10427517;28;20116;-57
2022/12/20 12:22:39;;;;;;;6.68;1.20;;;16.00;66.80;;;;;;10404822;28;20053;-57
2022/12/20 12:27:40;;;;;;;6.05;1.63;;;16.00;67.60;;;;;;10415391;28;20025;-55
2022/12/20 12:32:59;;;;;;;5.13;1.15;;;16.10;72.50;;;;;;10428833;28;20026;-56
2022/12/20 12:38:43;;;;;;;3.38;1.20;;;16.10;70.90;;;;;;10443415;28;20021;-56
2022/12/20 12:43:47;;;;;;;4.53;0.90;;;16.20;70.50;;;;;;10431017;28;20086;-56
2022/12/20 12:48:57;;;;;;;4.70;1.33;;;16.10;69.70;;;;;;10434228;28;20041;-57
2022/12/20 12:54:22;;;;;;;3.08;1.63;;;16.10;69.80;;;;;;10430029;28;20030;-56
2022/12/20 12:59:31;;;;;;;4.53;1.05;;;16.10;68.90;;;;;;10418419;28;20112;-57
2022/12/20 13:04:51;;;;;;;;;;;15.90;69.80;;;;;;10421112;28;20124;-55
2022/12/20 13:09:51;;;;;;;5.82;1.38;;;15.90;69.80;;;;;;10407857;28;19995;-58
2022/12/20 13:14:52;;;;;;;3.35;1.23;;;15.90;69.70;;;;;;10420997;28;20029;-57
2022/12/20 13:19:54;;;;;;;7.05;1.58;;;15.80;69.70;;;;;;10442949;28;20110;-56
2022/12/20 13:25:03;;;;;;;5.28;1.30;;;15.80;70.20;;;;;;10428968;28;20042;-55
2022/12/20 13:30:08;;;;;;;2.72;1.13;;;15.80;69.70;;;;;;10427269;28;20021;-57
2022/12/20 13:35:24;;;;;;;2.58;0.95;;;15.90;69.70;;;;;;10427012;28;20043;-57
2022/12/20 13:40:39;;;;;;;4.13;1.10;;;15.90;69.60;;;;;;10417655;28;20105;-57
2022/12/20 13:45:44;;;;;;;4.47;1.00;;;15.90;69.60;;;;;;10424766;28;20558;-56
2022/12/20 13:50:51;;;;;;;5.45;1.27;;;15.90;69.80;;;;;;10427989;28;20035;-56
2022/12/20 13:55:53;;;;;;;10.23;1.60;;;15.90;69.70;;;;;;10429443;28;20035;-58
2022/12/20 14:01:11;;;;;;;5.10;1.17;;;15.90;69.70;;;;;;10423069;28;20037;-57
2022/12/20 14:06:15;;;;;;;4.32;0.88;;;15.90;69.60;;;;;;10427322;28;20025;-57
2022/12/20 14:11:22;;;;;;;10.40;1.40;;;15.90;69.20;;;;;;10419287;28;20040;-57
2022/12/20 14:16:26;;;;;;;4.05;1.15;;;15.90;69.20;;;;;;10443720;28;20064;-57
2022/12/20 14:21:27;;;;;;;6.25;1.50;;;15.90;69.30;;;;;;10451806;28;20029;-56
2022/12/20 14:26:43;;;;;;;7.28;1.38;;;16.00;69.50;;;;;;10452718;28;20052;-58
2022/12/20 14:31:47;;;;;;;5.25;1.27;;;16.00;69.40;;;;;;10414613;28;20018;-58
2022/12/20 14:36:49;;;;;;;8.07;1.40;;;16.10;69.50;;;;;;10437263;28;20507;-56
2022/12/20 14:42:08;;;;;;;4.05;1.15;;;16.00;69.60;;;;;;10435161;28;20029;-59
2022/12/20 14:47:27;;;;;;;4.90;0.93;;;16.10;69.20;;;;;;10432873;28;20053;-57
2022/12/20 14:52:37;;;;;;;4.82;1.33;;;16.00;69.30;;;;;;10429682;28;20102;-58
2022/12/20 14:57:45;;;;;;;6.03;1.17;;;16.00;69.50;;;;;;10416272;28;20017;-58
2022/12/20 15:02:55;;;;;;;5.38;1.33;;;16.00;69.50;;;;;;10429437;28;20046;-53
2022/12/20 15:08:38;;;;;;;8.55;1.25;;;16.00;69.60;;;;;;10432618;28;20063;-54
2022/12/20 15:13:45;;;;;;;14.10;2.22;;;15.90;69.50;;;;;;10432483;28;20107;-56
2022/12/20 15:18:48;;;;;;;11.30;1.25;;;15.90;69.60;;;;;;10446502;28;20061;-57
2022/12/20 15:23:54;;;;;;;10.00;1.50;;;15.90;69.50;;;;;;10440473;28;20064;-57
2022/12/20 15:28:56;;;;;;;9.95;1.88;;;15.90;69.80;;;;;;10441988;28;20475;-56
2022/12/20 15:33:57;;;;;;;8.98;2.13;;;15.90;69.70;;;;;;10432042;28;20029;-59
2022/12/20 15:38:59;;;;;;;20.02;2.45;;;15.90;69.60;;;;;;10438197;28;20036;-58
2022/12/20 15:44:16;;;;;;;16.27;2.75;;;15.90;69.60;;;;;;10432710;28;20033;-59
2022/12/20 15:49:23;;;;;;;18.67;2.63;;;15.80;69.50;;;;;;10440203;28;20041;-57
2022/12/20 15:54:33;;;;;;;12.60;2.80;;;15.70;69.70;;;;;;10441654;28;20026;-56
2022/12/20 15:59:35;;;;;;;31.17;2.97;;;15.70;69.60;;;;;;10439752;28;20017;-58
2022/12/20 16:04:35;;;;;;;18.50;2.72;;;15.70;70.10;;;;;;10429445;28;20013;-57
2022/12/20 16:09:36;;;;;;;13.52;2.53;;;15.70;69.50;;;;;;10416862;28;20033;-58
2022/12/20 16:14:36;;;;;;;17.40;3.17;;;15.70;69.60;;;;;;10430859;28;20104;-58
2022/12/20 16:19:39;;;;;;;13.02;2.78;;;15.70;69.70;;;;;;10434711;28;20028;-57
2022/12/20 16:24:39;;;;;;;25.23;3.30;;;15.70;69.50;;;;;;10419999;28;20083;-55
2022/12/20 16:29:40;;;;;;;13.40;3.28;;;15.60;69.30;;;;;;10427969;28;20111;-58
2022/12/20 16:34:41;;;;;;;12.65;2.58;;;15.70;69.20;;;;;;10440093;28;20045;-58
2022/12/20 16:39:42;;;;;;;7.88;1.95;;;15.70;69.50;;;;;;10423733;28;20021;-57
2022/12/20 16:44:43;;;;;;;15.30;3.05;;;15.80;69.20;;;;;;10439856;28;20599;-57
2022/12/20 16:49:44;;;;;;;23.60;5.55;;;16.00;70.00;;;;;;10444610;28;20029;-59
2022/12/20 16:54:45;;;;;;;25.98;11.18;;;16.20;72.00;;;;;;10430436;28;20033;-57
2022/12/20 16:59:45;;;;;;;32.83;12.32;;;16.10;71.50;;;;;;10417845;28;20114;-56
2022/12/20 17:04:46;;;;;;;21.95;8.07;;;16.00;71.00;;;;;;10445165;28;20782;-57
2022/12/20 17:09:47;;;;;;;26.75;9.48;;;16.00;70.90;;;;;;10417979;28;20099;-58
2022/12/20 17:14:48;;;;;;;22.10;7.63;;;16.20;71.00;;;;;;10417157;28;20116;-59
2022/12/20 17:19:49;;;;;;;27.42;8.43;;;16.20;74.40;;;;;;10416483;28;20018;-57
2022/12/20 17:24:50;;;;;;;16.20;6.18;;;16.40;74.60;;;;;;10430081;28;20417;-55
2022/12/20 17:29:51;;;;;;;17.67;5.80;;;16.50;72.80;;;;;;10439880;28;20021;-53
2022/12/20 17:34:51;;;;;;;19.58;5.47;;;16.50;72.80;;;;;;10445495;28;20041;-56
2022/12/20 17:39:52;;;;;;;21.58;5.40;;;16.60;72.30;;;;;;10440576;28;20021;-57
2022/12/20 17:44:53;;;;;;;21.88;6.85;;;16.50;71.80;;;;;;10421636;28;20033;-55
2022/12/20 17:49:54;;;;;;;25.13;6.35;;;16.50;72.00;;;;;;10436943;28;20060;-55
2022/12/20 17:54:54;;;;;;;29.40;7.70;;;16.50;72.30;;;;;;10433334;28;20107;-56
2022/12/20 17:59:55;;;;;;;26.90;7.53;;;16.60;71.80;;;;;;10445394;28;20053;-57
2022/12/20 18:04:56;;;;;;;29.65;7.45;;;16.50;72.30;;;;;;10405133;28;20033;-54
2022/12/20 18:09:56;;;;;;;24.42;6.60;;;16.30;72.10;;;;;;10403358;28;20017;-56
2022/12/20 18:14:57;;;;;;;21.23;6.32;;;16.20;72.20;;;;;;10413992;28;20072;-57
2022/12/20 18:19:58;;;;;;;17.15;5.50;;;16.10;72.20;;;;;;10429850;28;20112;-55
2022/12/20 18:24:58;;;;;;;20.50;6.07;;;16.10;72.20;;;;;;10437865;28;20116;-56
2022/12/20 18:29:59;;;;;;;16.27;4.90;;;16.00;72.20;;;;;;10438442;28;20036;-56
2022/12/20 18:35:00;;;;;;;16.67;5.53;;;15.90;72.20;;;;;;10432540;28;20457;-55
2022/12/20 18:40:00;;;;;;;14.30;5.28;;;15.90;72.20;;;;;;10416959;28;20091;-56
2022/12/20 18:45:01;;;;;;;15.93;4.68;;;15.80;72.10;;;;;;10408526;28;20136;-55
2022/12/20 18:50:02;;;;;;;10.63;4.95;;;15.80;72.10;;;;;;10420626;28;20040;-56
2022/12/20 18:55:05;;;;;;;14.85;7.15;;;15.80;72.20;;;;;;10422508;28;20037;-55
2022/12/20 19:00:07;;;;;;;12.98;5.53;;;15.70;72.00;;;;;;10425931;28;20475;-57
2022/12/20 19:05:08;;;;;;;11.50;5.13;;;15.70;71.90;;;;;;10436515;28;20421;-56
2022/12/20 19:10:09;;;;;;;12.02;4.47;;;15.70;71.80;;;;;;10429627;28;20017;-55
2022/12/20 19:15:10;;;;;;;11.48;4.03;;;15.70;71.40;;;;;;10430839;28;20018;-56
2022/12/20 19:20:11;;;;;;;9.93;3.47;;;15.70;71.40;;;;;;10429524;28;20029;-57
2022/12/20 19:25:11;;;;;;;9.27;3.47;;;15.70;71.40;;;;;;10450938;28;20060;-55
2022/12/20 19:30:12;;;;;;;10.45;4.13;;;15.80;71.10;;;;;;10437685;28;20057;-56
2022/12/20 19:35:13;;;;;;;10.50;4.35;;;15.80;70.90;;;;;;10447302;28;20025;-54
2022/12/20 19:40:14;;;;;;;11.65;4.18;;;15.90;70.70;;;;;;10430480;28;20025;-55
2022/12/20 19:45:15;;;;;;;9.75;3.30;;;15.90;70.40;;;;;;10441430;28;20038;-56
2022/12/20 19:50:15;;;;;;;12.63;4.70;;;15.90;70.20;;;;;;10426600;28;20475;-56
2022/12/20 19:55:16;;;;;;;8.05;4.40;;;16.00;70.00;;;;;;10428755;28;20021;-57
2022/12/20 20:00:17;;;;;;;10.18;4.22;;;16.00;70.00;;;;;;10429181;28;20049;-56
2022/12/20 20:05:18;;;;;;;9.65;3.47;;;16.00;69.90;;;;;;10431284;28;20030;-57
2022/12/20 20:10:18;;;;;;;8.00;3.42;;;16.10;69.60;;;;;;10436833;28;20124;-57
2022/12/20 20:15:19;;;;;;;11.15;3.58;;;16.00;69.40;;;;;;10424224;28;20131;-54
2022/12/20 20:20:21;;;;;;;9.98;3.78;;;16.10;69.40;;;;;;10433178;28;20042;-56
2022/12/20 20:25:21;;;;;;;12.27;3.80;;;16.00;69.50;;;;;;10432305;28;20137;-54
2022/12/20 20:30:22;;;;;;;7.47;3.30;;;16.00;69.60;;;;;;10433335;28;20419;-55
2022/12/20 20:35:23;;;;;;;6.28;3.13;;;16.00;69.50;;;;;;10430107;28;20017;-56
2022/12/20 20:40:23;;;;;;;5.85;3.28;;;16.00;69.30;;;;;;10434220;28;20872;-57
2022/12/20 20:45:25;;;;;;;6.28;2.55;;;16.00;69.30;;;;;;10445293;28;20055;-56
2022/12/20 20:50:25;;;;;;;8.18;3.20;;;15.90;69.30;;;;;;10420012;28;20067;-55
2022/12/20 20:55:26;;;;;;;6.30;2.88;;;15.90;69.30;;;;;;10423080;28;20362;-54
2022/12/20 21:00:28;;;;;;;5.78;2.75;;;16.00;69.10;;;;;;10412585;28;20032;-56
2022/12/20 21:05:29;;;;;;;6.50;2.85;;;16.00;69.10;;;;;;10442642;28;20071;-57
2022/12/20 21:10:29;;;;;;;8.38;2.25;;;15.90;69.10;;;;;;10417891;28;20021;-55
2022/12/20 21:15:31;;;;;;;6.10;3.47;;;15.90;69.20;;;;;;10404445;28;20427;-56
2022/12/20 21:20:32;;;;;;;4.38;2.30;;;16.00;68.90;;;;;;10416891;28;20028;-55
2022/12/20 21:25:33;;;;;;;4.85;3.13;;;16.00;68.90;;;;;;10398860;28;20048;-56
2022/12/20 21:30:34;;;;;;;5.57;2.90;;;16.00;68.90;;;;;;10405860;28;20093;-57
2022/12/20 21:35:35;;;;;;;4.78;2.85;;;15.90;68.90;;;;;;10424705;28;20477;-56
2022/12/20 21:40:35;;;;;;;7.07;2.40;;;16.00;68.90;;;;;;10421966;28;20122;-55
2022/12/20 21:45:36;;;;;;;4.78;2.60;;;16.00;68.50;;;;;;10426032;28;20509;-57
2022/12/20 21:50:37;;;;;;;5.90;3.20;;;16.00;68.40;;;;;;10443736;28;20064;-56
2022/12/20 21:55:37;;;;;;;7.97;2.67;;;16.00;68.60;;;;;;10445009;28;20041;-56
2022/12/20 22:00:38;;;;;;;4.28;2.40;;;15.90;68.60;;;;;;10416175;28;20064;-56
2022/12/20 22:05:46;;;;;;;5.68;2.40;;;15.90;68.80;;;;;;10422476;28;20074;-56
2022/12/20 22:10:48;;;;;;;5.78;3.03;;;16.00;68.60;;;;;;10443230;28;20036;-55
2022/12/20 22:15:49;;;;;;;4.97;2.80;;;16.00;68.30;;;;;;10435624;28;20509;-56
2022/12/20 22:20:50;;;;;;;3.75;2.75;;;16.10;68.20;;;;;;10424411;28;20017;-57
2022/12/20 22:25:51;;;;;;;7.40;2.72;;;16.10;68.10;;;;;;10426847;28;20021;-56
2022/12/20 22:30:51;;;;;;;5.38;2.60;;;16.10;68.10;;;;;;10453606;28;20097;-56
2022/12/20 22:35:52;;;;;;;5.97;3.17;;;16.10;68.10;;;;;;10451910;28;20096;-57
2022/12/20 22:40:57;;;;;;;4.32;3.00;;;16.00;68.00;;;;;;10454870;28;21938;-56
2022/12/20 22:46:00;;;;;;;4.93;2.78;;;16.10;68.00;;;;;;10451252;28;20044;-57
2022/12/20 22:51:20;;;;;;;5.22;3.75;;;16.00;68.00;;;;;;10452932;28;20111;-54
2022/12/20 22:56:21;;;;;;;5.30;3.55;;;16.10;68.00;;;;;;10435977;28;20060;-57
2022/12/20 23:01:22;;;;;;;5.72;3.58;;;16.10;67.80;;;;;;10411429;28;20120;-55
2022/12/20 23:06:24;;;;;;;5.13;2.90;;;16.10;67.70;;;;;;10431033;28;20048;-56
2022/12/20 23:16:46;;;;;;;4.93;2.92;;;16.10;67.80;;;;;;10410035;28;20469;-56
2022/12/20 23:27:06;;;;;;;5.45;2.85;;;16.00;67.60;;;;;;10451548;28;20025;-57
2022/12/20 23:32:07;;;;;;;5.40;3.17;;;16.00;67.70;;;;;;10449871;28;20100;-55
2022/12/20 23:37:08;;;;;;;4.47;2.72;;;16.10;67.50;;;;;;10445569;28;20013;-56
2022/12/20 23:42:08;;;;;;;6.18;2.85;;;16.10;67.50;;;;;;10435913;28;20035;-57
2022/12/20 23:47:09;;;;;;;6.00;3.00;;;16.10;67.60;;;;;;10391788;28;20048;-56
2022/12/20 23:52:10;;;;;;;5.80;3.45;;;16.00;67.60;;;;;;10439775;28;20108;-55
2022/12/20 23:57:11;;;;;;;5.13;3.15;;;16.00;67.80;;;;;;10437170;28;20739;-57
